sensor_id;sensor_type;location;lat;lon;timestamp;temperature;humidity
19389;DHT22;9830;41.876;23.474;2023-01-08T00:01:43;-5.00;99.90
19389;DHT22;9830;41.876;23.474;2023-01-08T00:04:09;-5.00;99.90
19389;DHT22;9830;41.876;23.474;2023-01-08T00:06:35;-5.00;99.90
19389;DHT22;9830;41.876;23.474;2023-01-08T00:09:01;-5.00;99.90
19389;DHT22;9830;41.876;23.474;2023-01-08T00:11:27;-5.10;99.90
19389;DHT22;9830;41.876;23.474;2023-01-08T00:13:52;-5.00;99.90
19389;DHT22;9830;41.876;23.474;2023-01-08T00:16:19;-5.10;99.90
19389;DHT22;9830;41.876;23.474;2023-01-08T00:18:45;-5.10;99.90
19389;DHT22;9830;41.876;23.474;2023-01-08T00:21:12;-5.10;99.90
19389;DHT22;9830;41.876;23.474;2023-01-08T00:23:38;-5.20;99.90
19389;DHT22;9830;41.876;23.474;2023-01-08T00:26:06;-5.20;99.90
19389;DHT22;9830;41.876;23.474;2023-01-08T00:28:33;-5.30;99.90
19389;DHT22;9830;41.876;23.474;2023-01-08T00:30:59;-5.30;99.90
19389;DHT22;9830;41.876;23.474;2023-01-08T00:33:25;-5.30;99.90
19389;DHT22;9830;41.876;23.474;2023-01-08T00:35:51;-5.30;99.90
19389;DHT22;9830;41.876;23.474;2023-01-08T00:38:17;-5.30;99.90
19389;DHT22;9830;41.876;23.474;2023-01-08T00:40:42;-5.20;99.90
19389;DHT22;9830;41.876;23.474;2023-01-08T00:43:08;-5.20;99.90
19389;DHT22;9830;41.876;23.474;2023-01-08T00:45:34;-5.20;99.90
19389;DHT22;9830;41.876;23.474;2023-01-08T00:47:59;-5.20;99.90
19389;DHT22;9830;41.876;23.474;2023-01-08T00:50:25;-5.20;99.90
19389;DHT22;9830;41.876;23.474;2023-01-08T00:52:51;-5.30;99.90
19389;DHT22;9830;41.876;23.474;2023-01-08T00:55:17;-5.30;99.90
19389;DHT22;9830;41.876;23.474;2023-01-08T00:57:43;-5.30;99.90
19389;DHT22;9830;41.876;23.474;2023-01-08T01:00:12;-5.30;99.90
19389;DHT22;9830;41.876;23.474;2023-01-08T01:02:39;-5.30;99.90
19389;DHT22;9830;41.876;23.474;2023-01-08T01:05:06;-5.40;99.90
19389;DHT22;9830;41.876;23.474;2023-01-08T01:07:35;-5.40;99.90
19389;DHT22;9830;41.876;23.474;2023-01-08T01:10:01;-5.40;99.90
19389;DHT22;9830;41.876;23.474;2023-01-08T01:12:27;-5.50;99.90
19389;DHT22;9830;41.876;23.474;2023-01-08T01:14:53;-5.50;99.90
19389;DHT22;9830;41.876;23.474;2023-01-08T01:17:18;-5.50;99.90
19389;DHT22;9830;41.876;23.474;2023-01-08T01:19:44;-5.50;99.90
19389;DHT22;9830;41.876;23.474;2023-01-08T01:22:10;-5.50;99.90
19389;DHT22;9830;41.876;23.474;2023-01-08T01:24:36;-5.50;99.90
19389;DHT22;9830;41.876;23.474;2023-01-08T01:27:02;-5.50;99.90
19389;DHT22;9830;41.876;23.474;2023-01-08T01:29:27;-5.50;99.90
19389;DHT22;9830;41.876;23.474;2023-01-08T01:31:53;-5.50;99.90
19389;DHT22;9830;41.876;23.474;2023-01-08T01:34:19;-5.60;99.90
19389;DHT22;9830;41.876;23.474;2023-01-08T01:36:44;-5.70;99.90
19389;DHT22;9830;41.876;23.474;2023-01-08T01:39:10;-5.60;99.90
19389;DHT22;9830;41.876;23.474;2023-01-08T01:41:44;-5.70;99.90
19389;DHT22;9830;41.876;23.474;2023-01-08T01:44:48;-5.70;99.90
19389;DHT22;9830;41.876;23.474;2023-01-08T01:47:33;-5.70;99.90
19389;DHT22;9830;41.876;23.474;2023-01-08T01:52:41;-5.60;99.90
19389;DHT22;9830;41.876;23.474;2023-01-08T01:55:09;-5.60;99.90
19389;DHT22;9830;41.876;23.474;2023-01-08T01:57:36;-5.60;99.90
19389;DHT22;9830;41.876;23.474;2023-01-08T02:00:05;-5.70;99.90
19389;DHT22;9830;41.876;23.474;2023-01-08T02:02:32;-5.70;99.90
19389;DHT22;9830;41.876;23.474;2023-01-08T02:05:00;-5.70;99.90
19389;DHT22;9830;41.876;23.474;2023-01-08T02:10:09;-5.70;99.90
19389;DHT22;9830;41.876;23.474;2023-01-08T02:12:43;-5.70;99.90
19389;DHT22;9830;41.876;23.474;2023-01-08T02:15:30;-5.80;99.90
19389;DHT22;9830;41.876;23.474;2023-01-08T02:18:46;-5.70;99.90
19389;DHT22;9830;41.876;23.474;2023-01-08T02:21:13;-5.80;99.90
19389;DHT22;9830;41.876;23.474;2023-01-08T02:26:26;-5.90;99.90
19389;DHT22;9830;41.876;23.474;2023-01-08T02:28:57;-5.90;99.90
19389;DHT22;9830;41.876;23.474;2023-01-08T02:31:26;-5.90;99.90
19389;DHT22;9830;41.876;23.474;2023-01-08T02:33:53;-5.90;99.90
19389;DHT22;9830;41.876;23.474;2023-01-08T02:36:39;-5.90;99.90
19389;DHT22;9830;41.876;23.474;2023-01-08T02:39:17;-6.00;99.90
19389;DHT22;9830;41.876;23.474;2023-01-08T02:52:34;-6.00;99.90
19389;DHT22;9830;41.876;23.474;2023-01-08T02:55:02;-6.00;99.90
19389;DHT22;9830;41.876;23.474;2023-01-08T02:57:31;-6.10;99.90
19389;DHT22;9830;41.876;23.474;2023-01-08T02:59:57;-6.00;99.90
19389;DHT22;9830;41.876;23.474;2023-01-08T03:02:24;-6.00;99.90
19389;DHT22;9830;41.876;23.474;2023-01-08T03:05:02;-6.00;99.90
19389;DHT22;9830;41.876;23.474;2023-01-08T03:07:29;-6.00;99.90
19389;DHT22;9830;41.876;23.474;2023-01-08T03:09:55;-6.00;99.90
19389;DHT22;9830;41.876;23.474;2023-01-08T03:15:40;-6.10;99.90
19389;DHT22;9830;41.876;23.474;2023-01-08T03:18:10;-6.00;99.90
19389;DHT22;9830;41.876;23.474;2023-01-08T03:20:38;-6.10;99.90
19389;DHT22;9830;41.876;23.474;2023-01-08T03:23:07;-6.10;99.90
19389;DHT22;9830;41.876;23.474;2023-01-08T03:25:37;-6.20;99.90
19389;DHT22;9830;41.876;23.474;2023-01-08T03:28:07;-6.20;99.90
19389;DHT22;9830;41.876;23.474;2023-01-08T03:30:35;-6.20;99.90
19389;DHT22;9830;41.876;23.474;2023-01-08T03:33:03;-6.20;99.90
19389;DHT22;9830;41.876;23.474;2023-01-08T03:35:31;-6.30;99.90
19389;DHT22;9830;41.876;23.474;2023-01-08T03:38:12;-6.30;99.90
19389;DHT22;9830;41.876;23.474;2023-01-08T03:40:43;-6.30;99.90
19389;DHT22;9830;41.876;23.474;2023-01-08T03:43:10;-6.30;99.90
19389;DHT22;9830;41.876;23.474;2023-01-08T03:45:37;-6.30;99.90
19389;DHT22;9830;41.876;23.474;2023-01-08T03:48:07;-6.30;99.90
19389;DHT22;9830;41.876;23.474;2023-01-08T03:50:34;-6.30;99.90
19389;DHT22;9830;41.876;23.474;2023-01-08T03:53:00;-6.30;99.90
19389;DHT22;9830;41.876;23.474;2023-01-08T03:55:25;-6.30;99.90
19389;DHT22;9830;41.876;23.474;2023-01-08T03:57:51;-6.40;99.90
19389;DHT22;9830;41.876;23.474;2023-01-08T04:00:17;-6.40;99.90
19389;DHT22;9830;41.876;23.474;2023-01-08T04:02:43;-6.40;99.90
19389;DHT22;9830;41.876;23.474;2023-01-08T04:05:09;-6.40;99.90
19389;DHT22;9830;41.876;23.474;2023-01-08T04:07:35;-6.40;99.90
19389;DHT22;9830;41.876;23.474;2023-01-08T04:10:01;-6.50;99.90
19389;DHT22;9830;41.876;23.474;2023-01-08T04:12:26;-6.40;99.90
19389;DHT22;9830;41.876;23.474;2023-01-08T04:14:52;-6.40;99.90
19389;DHT22;9830;41.876;23.474;2023-01-08T04:17:18;-6.60;99.90
19389;DHT22;9830;41.876;23.474;2023-01-08T04:19:43;-6.50;99.90
19389;DHT22;9830;41.876;23.474;2023-01-08T04:22:10;-6.50;99.90
19389;DHT22;9830;41.876;23.474;2023-01-08T04:24:36;-6.50;99.90
19389;DHT22;9830;41.876;23.474;2023-01-08T04:27:01;-6.50;99.90
19389;DHT22;9830;41.876;23.474;2023-01-08T04:29:27;-6.40;99.90
19389;DHT22;9830;41.876;23.474;2023-01-08T04:31:53;-6.60;99.90
19389;DHT22;9830;41.876;23.474;2023-01-08T04:34:18;-6.70;99.90
19389;DHT22;9830;41.876;23.474;2023-01-08T04:36:44;-6.60;99.90
19389;DHT22;9830;41.876;23.474;2023-01-08T04:39:10;-6.60;99.90
19389;DHT22;9830;41.876;23.474;2023-01-08T04:41:36;-6.70;99.90
19389;DHT22;9830;41.876;23.474;2023-01-08T04:44:02;-6.70;99.90
19389;DHT22;9830;41.876;23.474;2023-01-08T04:46:27;-6.60;99.90
19389;DHT22;9830;41.876;23.474;2023-01-08T04:48:53;-6.60;99.90
19389;DHT22;9830;41.876;23.474;2023-01-08T04:51:19;-6.60;99.90
19389;DHT22;9830;41.876;23.474;2023-01-08T04:53:46;-6.60;99.90
19389;DHT22;9830;41.876;23.474;2023-01-08T04:56:12;-6.60;99.90
19389;DHT22;9830;41.876;23.474;2023-01-08T04:58:38;-6.60;99.90
19389;DHT22;9830;41.876;23.474;2023-01-08T05:01:12;-6.60;99.90
19389;DHT22;9830;41.876;23.474;2023-01-08T05:03:38;-6.70;99.90
19389;DHT22;9830;41.876;23.474;2023-01-08T05:06:05;-6.70;99.90
19389;DHT22;9830;41.876;23.474;2023-01-08T05:08:30;-6.70;99.90
19389;DHT22;9830;41.876;23.474;2023-01-08T05:11:00;-6.80;99.90
19389;DHT22;9830;41.876;23.474;2023-01-08T05:13:26;-6.80;99.90
19389;DHT22;9830;41.876;23.474;2023-01-08T05:15:52;-6.80;99.90
19389;DHT22;9830;41.876;23.474;2023-01-08T05:18:17;-6.80;99.90
19389;DHT22;9830;41.876;23.474;2023-01-08T05:20:43;-6.80;99.90
19389;DHT22;9830;41.876;23.474;2023-01-08T05:23:09;-6.80;99.90
19389;DHT22;9830;41.876;23.474;2023-01-08T05:25:34;-6.70;99.90
19389;DHT22;9830;41.876;23.474;2023-01-08T05:28:00;-6.70;99.90
19389;DHT22;9830;41.876;23.474;2023-01-08T05:30:26;-6.70;99.90
19389;DHT22;9830;41.876;23.474;2023-01-08T05:32:52;-6.70;99.90
19389;DHT22;9830;41.876;23.474;2023-01-08T05:35:18;-6.70;99.90
19389;DHT22;9830;41.876;23.474;2023-01-08T05:37:43;-6.80;99.90
19389;DHT22;9830;41.876;23.474;2023-01-08T05:40:09;-6.80;99.90
19389;DHT22;9830;41.876;23.474;2023-01-08T05:42:36;-6.80;99.90
19389;DHT22;9830;41.876;23.474;2023-01-08T05:45:03;-6.80;99.90
19389;DHT22;9830;41.876;23.474;2023-01-08T05:47:30;-6.80;99.90
19389;DHT22;9830;41.876;23.474;2023-01-08T05:49:56;-6.80;99.90
19389;DHT22;9830;41.876;23.474;2023-01-08T05:52:22;-6.80;99.90
19389;DHT22;9830;41.876;23.474;2023-01-08T05:54:47;-6.70;99.90
19389;DHT22;9830;41.876;23.474;2023-01-08T05:57:13;-6.70;99.90
19389;DHT22;9830;41.876;23.474;2023-01-08T05:59:39;-6.70;99.90
19389;DHT22;9830;41.876;23.474;2023-01-08T06:02:04;-6.70;99.90
19389;DHT22;9830;41.876;23.474;2023-01-08T06:04:30;-6.70;99.90
19389;DHT22;9830;41.876;23.474;2023-01-08T06:06:55;-6.70;99.90
19389;DHT22;9830;41.876;23.474;2023-01-08T06:09:21;-6.70;99.90
19389;DHT22;9830;41.876;23.474;2023-01-08T06:11:47;-6.60;99.90
19389;DHT22;9830;41.876;23.474;2023-01-08T06:14:14;-6.60;99.90
19389;DHT22;9830;41.876;23.474;2023-01-08T06:16:42;-6.40;99.90
19389;DHT22;9830;41.876;23.474;2023-01-08T06:19:09;-6.10;99.90
19389;DHT22;9830;41.876;23.474;2023-01-08T06:21:35;-5.50;99.90
19389;DHT22;9830;41.876;23.474;2023-01-08T06:24:01;-5.30;99.90
19389;DHT22;9830;41.876;23.474;2023-01-08T06:26:26;-4.80;99.90
19389;DHT22;9830;41.876;23.474;2023-01-08T06:28:52;-4.60;99.90
19389;DHT22;9830;41.876;23.474;2023-01-08T06:31:17;-4.00;99.90
19389;DHT22;9830;41.876;23.474;2023-01-08T06:33:44;-3.50;99.90
19389;DHT22;9830;41.876;23.474;2023-01-08T06:36:10;-3.20;99.90
19389;DHT22;9830;41.876;23.474;2023-01-08T06:38:36;-2.70;99.90
19389;DHT22;9830;41.876;23.474;2023-01-08T06:41:07;-2.30;99.90
19389;DHT22;9830;41.876;23.474;2023-01-08T06:43:35;-1.40;99.60
19389;DHT22;9830;41.876;23.474;2023-01-08T06:46:00;-1.00;97.50
19389;DHT22;9830;41.876;23.474;2023-01-08T06:48:26;0.00;94.40
19389;DHT22;9830;41.876;23.474;2023-01-08T06:50:52;0.30;93.00
19389;DHT22;9830;41.876;23.474;2023-01-08T06:53:18;0.40;91.80
19389;DHT22;9830;41.876;23.474;2023-01-08T06:55:44;0.60;92.80
19389;DHT22;9830;41.876;23.474;2023-01-08T06:58:11;1.30;90.60
19389;DHT22;9830;41.876;23.474;2023-01-08T07:00:37;1.10;90.10
19389;DHT22;9830;41.876;23.474;2023-01-08T07:03:03;1.60;87.70
19389;DHT22;9830;41.876;23.474;2023-01-08T07:05:29;2.80;79.80
19389;DHT22;9830;41.876;23.474;2023-01-08T07:07:55;4.50;69.40
19389;DHT22;9830;41.876;23.474;2023-01-08T07:10:21;5.10;63.50
19389;DHT22;9830;41.876;23.474;2023-01-08T07:12:47;6.30;59.10
19389;DHT22;9830;41.876;23.474;2023-01-08T07:15:13;6.80;56.70
19389;DHT22;9830;41.876;23.474;2023-01-08T07:17:39;7.30;55.40
19389;DHT22;9830;41.876;23.474;2023-01-08T07:20:05;7.50;54.40
19389;DHT22;9830;41.876;23.474;2023-01-08T07:22:31;7.60;53.00
19389;DHT22;9830;41.876;23.474;2023-01-08T07:24:56;7.60;53.30
19389;DHT22;9830;41.876;23.474;2023-01-08T07:27:22;8.00;52.20
19389;DHT22;9830;41.876;23.474;2023-01-08T07:29:48;7.30;53.30
19389;DHT22;9830;41.876;23.474;2023-01-08T07:32:13;8.10;52.20
19389;DHT22;9830;41.876;23.474;2023-01-08T07:34:39;8.50;50.90
19389;DHT22;9830;41.876;23.474;2023-01-08T07:37:05;8.60;50.60
19389;DHT22;9830;41.876;23.474;2023-01-08T07:39:30;8.10;51.00
19389;DHT22;9830;41.876;23.474;2023-01-08T07:41:56;8.50;51.10
19389;DHT22;9830;41.876;23.474;2023-01-08T07:44:22;8.40;49.70
19389;DHT22;9830;41.876;23.474;2023-01-08T07:46:48;6.60;55.00
19389;DHT22;9830;41.876;23.474;2023-01-08T07:49:13;5.90;59.30
19389;DHT22;9830;41.876;23.474;2023-01-08T07:51:39;8.80;53.30
19389;DHT22;9830;41.876;23.474;2023-01-08T07:54:05;9.80;49.70
19389;DHT22;9830;41.876;23.474;2023-01-08T07:56:30;10.50;48.50
19389;DHT22;9830;41.876;23.474;2023-01-08T07:58:56;10.40;47.50
19389;DHT22;9830;41.876;23.474;2023-01-08T08:01:22;11.00;47.70
19389;DHT22;9830;41.876;23.474;2023-01-08T08:03:48;10.80;47.00
19389;DHT22;9830;41.876;23.474;2023-01-08T08:06:13;9.30;49.20
19389;DHT22;9830;41.876;23.474;2023-01-08T08:08:39;8.60;52.60
19389;DHT22;9830;41.876;23.474;2023-01-08T08:11:05;7.50;56.10
19389;DHT22;9830;41.876;23.474;2023-01-08T08:13:31;5.90;64.10
19389;DHT22;9830;41.876;23.474;2023-01-08T08:16:03;7.30;61.30
19389;DHT22;9830;41.876;23.474;2023-01-08T08:18:29;7.20;59.20
19389;DHT22;9830;41.876;23.474;2023-01-08T08:20:55;7.20;60.30
19389;DHT22;9830;41.876;23.474;2023-01-08T08:23:22;6.80;61.70
19389;DHT22;9830;41.876;23.474;2023-01-08T08:25:48;6.40;65.20
19389;DHT22;9830;41.876;23.474;2023-01-08T08:28:16;6.30;67.30
19389;DHT22;9830;41.876;23.474;2023-01-08T08:30:42;6.30;67.30
19389;DHT22;9830;41.876;23.474;2023-01-08T08:33:08;6.10;68.00
19389;DHT22;9830;41.876;23.474;2023-01-08T08:35:34;5.70;72.90
19389;DHT22;9830;41.876;23.474;2023-01-08T08:38:00;5.40;74.70
19389;DHT22;9830;41.876;23.474;2023-01-08T08:40:26;5.80;76.90
19389;DHT22;9830;41.876;23.474;2023-01-08T08:43:02;7.30;67.50
19389;DHT22;9830;41.876;23.474;2023-01-08T08:45:29;8.70;60.00
19389;DHT22;9830;41.876;23.474;2023-01-08T08:47:55;10.10;55.50
19389;DHT22;9830;41.876;23.474;2023-01-08T08:50:21;9.90;52.60
19389;DHT22;9830;41.876;23.474;2023-01-08T08:52:47;9.30;54.00
19389;DHT22;9830;41.876;23.474;2023-01-08T08:55:13;10.00;52.40
19389;DHT22;9830;41.876;23.474;2023-01-08T08:57:42;10.60;52.40
19389;DHT22;9830;41.876;23.474;2023-01-08T09:00:08;12.40;48.00
19389;DHT22;9830;41.876;23.474;2023-01-08T09:02:34;13.40;44.90
19389;DHT22;9830;41.876;23.474;2023-01-08T09:05:00;11.10;47.60
19389;DHT22;9830;41.876;23.474;2023-01-08T09:07:25;11.30;48.80
19389;DHT22;9830;41.876;23.474;2023-01-08T09:09:51;11.80;48.30
19389;DHT22;9830;41.876;23.474;2023-01-08T09:12:17;11.50;48.50
19389;DHT22;9830;41.876;23.474;2023-01-08T09:14:42;13.50;45.60
19389;DHT22;9830;41.876;23.474;2023-01-08T09:17:08;14.90;42.20
19389;DHT22;9830;41.876;23.474;2023-01-08T09:19:33;13.20;43.10
19389;DHT22;9830;41.876;23.474;2023-01-08T09:22:01;14.10;43.40
19389;DHT22;9830;41.876;23.474;2023-01-08T09:24:27;14.10;43.60
19389;DHT22;9830;41.876;23.474;2023-01-08T09:26:53;14.00;44.30
19389;DHT22;9830;41.876;23.474;2023-01-08T09:29:19;13.60;43.30
19389;DHT22;9830;41.876;23.474;2023-01-08T09:31:45;12.30;47.60
19389;DHT22;9830;41.876;23.474;2023-01-08T09:34:11;13.70;45.20
19389;DHT22;9830;41.876;23.474;2023-01-08T09:36:37;12.70;45.50
19389;DHT22;9830;41.876;23.474;2023-01-08T09:39:03;12.70;46.30
19389;DHT22;9830;41.876;23.474;2023-01-08T09:41:36;12.50;44.80
19389;DHT22;9830;41.876;23.474;2023-01-08T09:44:05;12.80;47.00
19389;DHT22;9830;41.876;23.474;2023-01-08T09:46:31;13.50;44.50
19389;DHT22;9830;41.876;23.474;2023-01-08T09:49:03;14.20;43.70
19389;DHT22;9830;41.876;23.474;2023-01-08T09:51:35;13.90;42.90
19389;DHT22;9830;41.876;23.474;2023-01-08T09:54:01;12.00;45.90
19389;DHT22;9830;41.876;23.474;2023-01-08T09:56:27;12.80;46.90
19389;DHT22;9830;41.876;23.474;2023-01-08T09:58:58;13.70;45.00
19389;DHT22;9830;41.876;23.474;2023-01-08T10:01:27;14.90;43.20
19389;DHT22;9830;41.876;23.474;2023-01-08T10:04:13;15.70;41.10
19389;DHT22;9830;41.876;23.474;2023-01-08T10:06:52;13.70;43.40
19389;DHT22;9830;41.876;23.474;2023-01-08T10:09:24;12.50;45.80
19389;DHT22;9830;41.876;23.474;2023-01-08T10:11:52;13.60;43.30
19389;DHT22;9830;41.876;23.474;2023-01-08T10:14:22;13.10;46.30
19389;DHT22;9830;41.876;23.474;2023-01-08T10:16:57;13.50;44.60
19389;DHT22;9830;41.876;23.474;2023-01-08T10:19:23;13.10;45.00
19389;DHT22;9830;41.876;23.474;2023-01-08T10:21:49;13.40;45.80
19389;DHT22;9830;41.876;23.474;2023-01-08T10:24:15;13.60;43.60
19389;DHT22;9830;41.876;23.474;2023-01-08T10:26:41;12.80;44.90
19389;DHT22;9830;41.876;23.474;2023-01-08T10:29:14;13.00;45.90
19389;DHT22;9830;41.876;23.474;2023-01-08T10:31:51;13.80;45.00
19389;DHT22;9830;41.876;23.474;2023-01-08T10:34:30;15.30;40.90
19389;DHT22;9830;41.876;23.474;2023-01-08T10:36:57;15.60;40.40
19389;DHT22;9830;41.876;23.474;2023-01-08T10:39:26;14.80;41.30
19389;DHT22;9830;41.876;23.474;2023-01-08T10:41:56;15.90;39.90
19389;DHT22;9830;41.876;23.474;2023-01-08T10:44:27;16.20;38.40
19389;DHT22;9830;41.876;23.474;2023-01-08T10:46:56;15.80;38.10
19389;DHT22;9830;41.876;23.474;2023-01-08T10:49:34;15.90;38.50
19389;DHT22;9830;41.876;23.474;2023-01-08T10:52:03;14.60;40.40
19389;DHT22;9830;41.876;23.474;2023-01-08T10:54:36;14.40;41.00
19389;DHT22;9830;41.876;23.474;2023-01-08T10:57:15;13.90;40.60
19389;DHT22;9830;41.876;23.474;2023-01-08T10:59:43;13.80;41.90
19389;DHT22;9830;41.876;23.474;2023-01-08T11:04:58;13.40;42.30
19389;DHT22;9830;41.876;23.474;2023-01-08T11:07:24;13.20;43.70
19389;DHT22;9830;41.876;23.474;2023-01-08T11:09:51;12.70;44.30
19389;DHT22;9830;41.876;23.474;2023-01-08T11:12:36;12.50;45.20
19389;DHT22;9830;41.876;23.474;2023-01-08T11:15:27;11.70;46.40
19389;DHT22;9830;41.876;23.474;2023-01-08T11:17:51;11.40;47.00
19389;DHT22;9830;41.876;23.474;2023-01-08T11:20:28;11.00;48.50
19389;DHT22;9830;41.876;23.474;2023-01-08T11:25:41;11.20;47.20
19389;DHT22;9830;41.876;23.474;2023-01-08T11:28:12;10.60;48.50
19389;DHT22;9830;41.876;23.474;2023-01-08T11:30:43;10.40;49.00
19389;DHT22;9830;41.876;23.474;2023-01-08T11:33:20;10.30;49.60
19389;DHT22;9830;41.876;23.474;2023-01-08T11:35:49;9.60;51.10
19389;DHT22;9830;41.876;23.474;2023-01-08T11:38:17;9.60;51.60
19389;DHT22;9830;41.876;23.474;2023-01-08T11:57:38;9.70;54.70
19389;DHT22;9830;41.876;23.474;2023-01-08T12:02:53;9.60;54.20
19389;DHT22;9830;41.876;23.474;2023-01-08T12:05:24;9.40;54.70
19389;DHT22;9830;41.876;23.474;2023-01-08T12:13:20;9.30;54.50
19389;DHT22;9830;41.876;23.474;2023-01-08T12:40:26;9.20;55.80
19389;DHT22;9830;41.876;23.474;2023-01-08T12:42:57;9.10;55.80
19389;DHT22;9830;41.876;23.474;2023-01-08T12:45:31;9.30;55.70
19389;DHT22;9830;41.876;23.474;2023-01-08T12:48:27;9.40;55.20
19389;DHT22;9830;41.876;23.474;2023-01-08T12:51:23;9.40;55.40
19389;DHT22;9830;41.876;23.474;2023-01-08T12:53:54;9.40;54.50
19389;DHT22;9830;41.876;23.474;2023-01-08T13:04:43;9.60;54.70
19389;DHT22;9830;41.876;23.474;2023-01-08T13:07:29;9.70;55.60
19389;DHT22;9830;41.876;23.474;2023-01-08T13:12:53;9.40;54.80
19389;DHT22;9830;41.876;23.474;2023-01-08T13:15:21;9.50;54.90
19389;DHT22;9830;41.876;23.474;2023-01-08T13:17:48;9.60;54.90
19389;DHT22;9830;41.876;23.474;2023-01-08T13:20:21;9.60;55.10
19389;DHT22;9830;41.876;23.474;2023-01-08T13:22:57;9.60;54.50
19389;DHT22;9830;41.876;23.474;2023-01-08T13:25:37;9.50;54.90
19389;DHT22;9830;41.876;23.474;2023-01-08T13:31:25;9.50;54.60
19389;DHT22;9830;41.876;23.474;2023-01-08T13:33:52;9.40;54.20
19389;DHT22;9830;41.876;23.474;2023-01-08T13:36:27;9.30;53.80
19389;DHT22;9830;41.876;23.474;2023-01-08T13:39:30;9.10;54.30
19389;DHT22;9830;41.876;23.474;2023-01-08T13:42:22;9.10;54.50
19389;DHT22;9830;41.876;23.474;2023-01-08T13:44:56;9.00;55.20
19389;DHT22;9830;41.876;23.474;2023-01-08T13:47:34;8.90;55.70
19389;DHT22;9830;41.876;23.474;2023-01-08T13:50:03;8.60;55.90
19389;DHT22;9830;41.876;23.474;2023-01-08T13:55:02;8.60;57.70
19389;DHT22;9830;41.876;23.474;2023-01-08T13:57:36;8.60;57.10
19389;DHT22;9830;41.876;23.474;2023-01-08T14:00:06;8.60;57.20
19389;DHT22;9830;41.876;23.474;2023-01-08T14:02:44;8.50;57.50
19389;DHT22;9830;41.876;23.474;2023-01-08T14:05:29;8.40;57.30
19389;DHT22;9830;41.876;23.474;2023-01-08T14:07:56;8.40;57.10
19389;DHT22;9830;41.876;23.474;2023-01-08T14:10:23;8.30;57.50
19389;DHT22;9830;41.876;23.474;2023-01-08T14:12:49;8.20;61.00
19389;DHT22;9830;41.876;23.474;2023-01-08T14:15:27;8.00;63.30
19389;DHT22;9830;41.876;23.474;2023-01-08T14:17:55;7.70;65.80
19389;DHT22;9830;41.876;23.474;2023-01-08T14:20:36;7.40;67.00
19389;DHT22;9830;41.876;23.474;2023-01-08T14:23:12;6.90;68.70
19389;DHT22;9830;41.876;23.474;2023-01-08T14:25:40;6.40;71.90
19389;DHT22;9830;41.876;23.474;2023-01-08T14:28:06;5.90;75.80
19389;DHT22;9830;41.876;23.474;2023-01-08T14:30:32;5.30;80.10
19389;DHT22;9830;41.876;23.474;2023-01-08T14:33:00;5.00;84.30
19389;DHT22;9830;41.876;23.474;2023-01-08T14:35:29;4.70;88.00
19389;DHT22;9830;41.876;23.474;2023-01-08T14:37:58;4.40;90.90
19389;DHT22;9830;41.876;23.474;2023-01-08T14:40:46;4.10;92.50
19389;DHT22;9830;41.876;23.474;2023-01-08T14:43:17;3.90;93.90
19389;DHT22;9830;41.876;23.474;2023-01-08T14:45:47;3.70;95.50
19389;DHT22;9830;41.876;23.474;2023-01-08T14:48:35;3.50;96.20
19389;DHT22;9830;41.876;23.474;2023-01-08T14:51:08;3.30;97.30
19389;DHT22;9830;41.876;23.474;2023-01-08T14:53:49;3.10;98.20
19389;DHT22;9830;41.876;23.474;2023-01-08T14:56:19;2.90;98.90
19389;DHT22;9830;41.876;23.474;2023-01-08T14:58:47;2.80;99.50
19389;DHT22;9830;41.876;23.474;2023-01-08T15:01:22;2.80;99.90
19389;DHT22;9830;41.876;23.474;2023-01-08T15:03:49;2.60;99.90
19389;DHT22;9830;41.876;23.474;2023-01-08T15:06:27;2.60;99.90
19389;DHT22;9830;41.876;23.474;2023-01-08T15:08:53;2.50;99.90
19389;DHT22;9830;41.876;23.474;2023-01-08T15:11:29;2.30;99.90
19389;DHT22;9830;41.876;23.474;2023-01-08T15:13:55;2.30;99.90
19389;DHT22;9830;41.876;23.474;2023-01-08T15:16:36;2.20;99.90
19389;DHT22;9830;41.876;23.474;2023-01-08T15:19:06;2.00;99.90
19389;DHT22;9830;41.876;23.474;2023-01-08T15:21:33;1.90;99.90
19389;DHT22;9830;41.876;23.474;2023-01-08T15:24:00;1.80;99.90
19389;DHT22;9830;41.876;23.474;2023-01-08T15:26:26;1.70;99.90
19389;DHT22;9830;41.876;23.474;2023-01-08T15:29:05;1.50;99.90
19389;DHT22;9830;41.876;23.474;2023-01-08T15:34:06;1.30;99.90
19389;DHT22;9830;41.876;23.474;2023-01-08T15:36:32;1.20;99.90
19389;DHT22;9830;41.876;23.474;2023-01-08T15:38:58;1.10;99.90
19389;DHT22;9830;41.876;23.474;2023-01-08T15:41:24;1.00;99.90
19389;DHT22;9830;41.876;23.474;2023-01-08T15:44:09;1.00;99.90
19389;DHT22;9830;41.876;23.474;2023-01-08T15:46:37;0.90;99.90
19389;DHT22;9830;41.876;23.474;2023-01-08T15:49:03;0.80;99.90
19389;DHT22;9830;41.876;23.474;2023-01-08T15:51:31;0.70;99.90
19389;DHT22;9830;41.876;23.474;2023-01-08T15:53:57;0.60;99.90
19389;DHT22;9830;41.876;23.474;2023-01-08T15:56:23;0.50;99.90
19389;DHT22;9830;41.876;23.474;2023-01-08T15:58:49;0.40;99.90
19389;DHT22;9830;41.876;23.474;2023-01-08T16:01:14;0.30;99.90
19389;DHT22;9830;41.876;23.474;2023-01-08T16:03:40;0.30;99.90
19389;DHT22;9830;41.876;23.474;2023-01-08T16:06:07;0.20;99.90
19389;DHT22;9830;41.876;23.474;2023-01-08T16:08:32;0.10;99.90
19389;DHT22;9830;41.876;23.474;2023-01-08T16:10:58;0.00;99.90
19389;DHT22;9830;41.876;23.474;2023-01-08T16:13:24;0.00;99.90
19389;DHT22;9830;41.876;23.474;2023-01-08T16:15:49;0.00;99.90
19389;DHT22;9830;41.876;23.474;2023-01-08T16:18:15;-0.10;99.90
19389;DHT22;9830;41.876;23.474;2023-01-08T16:20:40;-0.10;99.90
19389;DHT22;9830;41.876;23.474;2023-01-08T16:23:06;-0.20;99.90
19389;DHT22;9830;41.876;23.474;2023-01-08T16:25:32;-0.20;99.90
19389;DHT22;9830;41.876;23.474;2023-01-08T16:27:58;-0.30;99.90
19389;DHT22;9830;41.876;23.474;2023-01-08T16:30:23;-0.30;99.90
19389;DHT22;9830;41.876;23.474;2023-01-08T16:32:50;-0.40;99.90
19389;DHT22;9830;41.876;23.474;2023-01-08T16:35:17;-0.40;99.90
19389;DHT22;9830;41.876;23.474;2023-01-08T16:37:42;-0.50;99.90
19389;DHT22;9830;41.876;23.474;2023-01-08T16:40:08;-0.60;99.90
19389;DHT22;9830;41.876;23.474;2023-01-08T16:42:35;-0.60;99.90
19389;DHT22;9830;41.876;23.474;2023-01-08T16:45:01;-0.60;99.90
19389;DHT22;9830;41.876;23.474;2023-01-08T16:47:26;-0.70;99.90
19389;DHT22;9830;41.876;23.474;2023-01-08T16:49:52;-0.80;99.90
19389;DHT22;9830;41.876;23.474;2023-01-08T16:52:18;-0.80;99.90
19389;DHT22;9830;41.876;23.474;2023-01-08T16:54:44;-0.90;99.90
19389;DHT22;9830;41.876;23.474;2023-01-08T16:57:10;-0.90;99.90
19389;DHT22;9830;41.876;23.474;2023-01-08T16:59:35;-1.00;99.90
19389;DHT22;9830;41.876;23.474;2023-01-08T17:02:01;-1.00;99.90
19389;DHT22;9830;41.876;23.474;2023-01-08T17:04:30;-1.10;99.90
19389;DHT22;9830;41.876;23.474;2023-01-08T17:06:56;-1.10;99.90
19389;DHT22;9830;41.876;23.474;2023-01-08T17:09:23;-1.20;99.90
19389;DHT22;9830;41.876;23.474;2023-01-08T17:11:48;-1.20;99.90
19389;DHT22;9830;41.876;23.474;2023-01-08T17:14:14;-1.20;99.90
19389;DHT22;9830;41.876;23.474;2023-01-08T17:16:40;-1.30;99.90
19389;DHT22;9830;41.876;23.474;2023-01-08T17:19:07;-1.30;99.90
19389;DHT22;9830;41.876;23.474;2023-01-08T17:21:33;-1.30;99.90